createdAt,value
2019-03-12T00:00:42.889Z,64.26
2019-03-12T00:03:15.805Z,62.32
2019-03-12T00:05:48.639Z,48.26
2019-03-12T00:08:21.563Z,48.92
2019-03-12T00:10:54.429Z,52.01
2019-03-12T00:13:27.515Z,54.89
2019-03-12T00:16:01.447Z,57.06
2019-03-12T00:18:34.264Z,58.30
2019-03-12T00:21:07.082Z,60.37
2019-03-12T00:23:39.929Z,62.28
2019-03-12T00:26:12.680Z,64.98
2019-03-12T00:28:45.560Z,50.94
2019-03-12T00:31:20.104Z,47.58
2019-03-12T00:33:52.866Z,50.46
2019-03-12T00:36:25.742Z,53.30
2019-03-12T00:38:58.627Z,55.79
2019-03-12T00:41:31.846Z,57.67
2019-03-12T00:44:04.676Z,59.78
2019-03-12T00:46:37.867Z,61.05
2019-03-12T00:49:10.604Z,62.15
2019-03-12T00:51:43.326Z,66.01
2019-03-12T00:54:16.222Z,51.72
2019-03-12T00:56:49.006Z,48.08
2019-03-12T00:59:21.733Z,51.18
2019-03-12T01:01:55.602Z,53.96
2019-03-12T01:04:28.370Z,56.50
2019-03-12T01:07:01.102Z,58.44
2019-03-12T01:09:33.823Z,60.94
2019-03-12T01:12:06.582Z,62.25
2019-03-12T01:14:39.387Z,62.58
2019-03-12T01:17:12.278Z,66.68
2019-03-12T01:19:45.104Z,50.89
2019-03-12T01:22:17.889Z,48.33
2019-03-12T01:24:50.708Z,51.32
2019-03-12T01:27:23.584Z,53.97
2019-03-12T01:29:56.283Z,57.23
2019-03-12T01:32:29.097Z,58.60
2019-03-12T01:35:01.870Z,60.63
2019-03-12T01:37:34.768Z,62.04
2019-03-12T01:40:08.744Z,62.87
2019-03-12T01:42:41.530Z,49.61
2019-03-12T01:45:15.854Z,48.70
2019-03-12T01:47:48.546Z,52.17
2019-03-12T01:50:21.379Z,55.02
2019-03-12T01:52:55.647Z,57.61
2019-03-12T01:55:28.393Z,58.65
2019-03-12T01:58:01.362Z,60.21
2019-03-12T02:00:34.528Z,61.57
2019-03-12T02:03:07.500Z,62.73
2019-03-12T02:05:40.492Z,60.83
2019-03-12T02:08:14.389Z,49.65
2019-03-12T02:10:47.224Z,49.88
2019-03-12T02:13:20.074Z,52.82
2019-03-12T02:15:52.795Z,55.18
2019-03-12T02:18:25.562Z,57.05
2019-03-12T02:20:58.406Z,58.17
2019-03-12T02:23:31.123Z,60.21
2019-03-12T02:26:03.879Z,61.02
2019-03-12T02:28:36.686Z,62.64
2019-03-12T02:31:09.501Z,62.01
2019-03-12T02:33:42.292Z,48.95
2019-03-12T02:36:15.086Z,48.70
2019-03-12T02:38:48.008Z,51.39
2019-03-12T02:41:20.767Z,54.18
2019-03-12T02:43:53.536Z,55.49
2019-03-12T02:46:26.431Z,57.85
2019-03-12T02:48:59.300Z,58.68
2019-03-12T02:51:32.044Z,59.29
2019-03-12T02:54:04.789Z,60.29
2019-03-12T02:56:37.533Z,61.23
2019-03-12T02:59:11.711Z,65.64
2019-03-12T03:01:44.580Z,59.71
2019-03-12T03:04:17.352Z,48.64
2019-03-12T03:07:03.776Z,50.20
2019-03-12T03:09:36.570Z,52.71
2019-03-12T03:12:09.301Z,55.36
2019-03-12T03:14:42.489Z,57.69
2019-03-12T03:17:16.553Z,59.11
2019-03-12T03:19:49.328Z,59.98
2019-03-12T03:22:22.372Z,61.48
2019-03-12T03:24:55.188Z,65.39
2019-03-12T03:27:29.717Z,57.78
2019-03-12T03:30:02.762Z,47.84
2019-03-12T03:32:36.662Z,49.78
2019-03-12T03:35:09.663Z,52.49
2019-03-12T03:37:42.409Z,54.99
2019-03-12T03:40:18.808Z,57.55
2019-03-12T03:42:51.730Z,59.03
2019-03-12T03:45:24.461Z,60.41
2019-03-12T03:47:57.160Z,61.73
2019-03-12T03:50:29.881Z,63.84
2019-03-12T03:53:02.686Z,62.67
2019-03-12T03:55:35.724Z,48.70
2019-03-12T03:58:08.575Z,49.23
2019-03-12T04:00:41.285Z,52.39
2019-03-12T04:03:14.020Z,54.91
2019-03-12T04:05:46.874Z,57.35
2019-03-12T04:08:19.695Z,59.16
2019-03-12T04:10:52.527Z,60.50
2019-03-12T04:13:25.399Z,61.11
2019-03-12T04:15:58.202Z,64.71
2019-03-12T04:18:30.997Z,62.92
2019-03-12T04:21:03.743Z,48.80
2019-03-12T04:23:36.585Z,48.68
2019-03-12T04:26:09.415Z,51.93
2019-03-12T04:28:42.292Z,54.87
2019-03-12T04:31:15.085Z,55.44
2019-03-12T04:34:17.693Z,58.45
2019-03-12T04:36:52.052Z,60.14
2019-03-12T04:39:24.753Z,61.54
2019-03-12T04:41:57.625Z,64.19
2019-03-12T04:44:30.406Z,61.68
2019-03-12T04:47:03.214Z,49.70
2019-03-12T04:49:36.095Z,51.04
2019-03-12T04:52:08.907Z,54.03
2019-03-12T04:54:41.662Z,56.92
2019-03-12T04:57:14.597Z,58.36
2019-03-12T04:59:47.399Z,60.42
2019-03-12T05:02:20.202Z,61.75
2019-03-12T05:04:52.962Z,64.38
2019-03-12T05:07:25.794Z,58.62
2019-03-12T05:09:58.585Z,48.62
2019-03-12T05:12:31.282Z,50.51
2019-03-12T05:15:04.078Z,53.45
2019-03-12T05:17:38.490Z,55.87
2019-03-12T05:20:13.643Z,58.01
2019-03-12T05:22:46.693Z,59.77
2019-03-12T05:25:19.398Z,61.72
2019-03-12T05:27:52.110Z,63.96
2019-03-12T05:30:24.890Z,50.59
2019-03-12T05:32:57.665Z,49.20
2019-03-12T05:35:30.473Z,52.41
2019-03-12T05:38:03.199Z,55.52
2019-03-12T05:40:35.984Z,57.91
2019-03-12T05:43:09.828Z,60.12
2019-03-12T05:45:42.593Z,61.67
2019-03-12T05:48:15.403Z,63.10
2019-03-12T05:50:48.141Z,49.46
2019-03-12T05:53:20.944Z,48.03
2019-03-12T05:55:53.676Z,51.25
2019-03-12T05:58:26.542Z,54.15
2019-03-12T06:00:59.555Z,56.46
2019-03-12T06:03:32.654Z,58.71
2019-03-12T06:06:05.592Z,60.79
2019-03-12T06:08:38.374Z,62.10
2019-03-12T06:11:11.090Z,61.78
2019-03-12T06:13:43.870Z,49.64
2019-03-12T06:16:16.765Z,51.35
2019-03-12T06:18:49.489Z,54.08
2019-03-12T06:21:22.490Z,56.22
2019-03-12T06:23:56.467Z,59.26
2019-03-12T06:26:29.224Z,60.65
2019-03-12T06:29:01.946Z,61.15
2019-03-12T06:31:56.991Z,65.35
2019-03-12T06:34:43.353Z,50.48
2019-03-12T06:37:47.336Z,47.65
2019-03-12T06:40:44.694Z,51.72
2019-03-12T06:43:24.863Z,54.59
2019-03-12T06:46:15.310Z,57.25
2019-03-12T06:49:12.709Z,58.90
2019-03-12T06:52:05.637Z,60.56
2019-03-12T06:54:57.356Z,61.66
2019-03-12T06:57:42.382Z,64.24
2019-03-12T07:00:40.834Z,48.80
2019-03-12T07:03:25.181Z,49.08
2019-03-12T07:06:32.193Z,51.81
2019-03-12T07:09:27.339Z,54.82
2019-03-12T07:12:19.362Z,57.46
2019-03-12T07:15:13.866Z,58.74
2019-03-12T07:18:20.887Z,60.82
2019-03-12T07:21:04.531Z,62.48
2019-03-12T07:24:13.148Z,59.37
2019-03-12T07:27:11.099Z,49.31
2019-03-12T07:30:08.737Z,51.59
2019-03-12T07:32:57.029Z,54.42
2019-03-12T07:35:51.680Z,56.14
2019-03-12T07:38:36.268Z,57.87
2019-03-12T07:41:31.962Z,59.73
2019-03-12T07:44:26.902Z,61.01
2019-03-12T07:47:11.213Z,65.89
2019-03-12T07:50:01.192Z,55.35
2019-03-12T07:52:45.972Z,46.26
2019-03-12T07:55:46.475Z,49.13
2019-03-12T07:58:46.954Z,52.77
2019-03-12T08:01:36.166Z,54.69
2019-03-12T08:04:33.935Z,57.39
2019-03-12T08:07:31.203Z,58.47
2019-03-12T08:10:28.807Z,60.45
2019-03-12T08:13:20.492Z,62.29
2019-03-12T08:16:07.891Z,62.22
2019-03-12T08:18:52.901Z,49.89
2019-03-12T08:21:49.914Z,51.01
2019-03-12T08:24:44.425Z,54.58
2019-03-12T08:27:34.623Z,57.01
2019-03-12T08:30:34.271Z,59.62
2019-03-12T08:33:24.743Z,61.79
2019-03-12T08:36:19.537Z,64.37
2019-03-12T08:39:00.202Z,49.01
2019-03-12T08:41:50.583Z,47.45
2019-03-12T08:44:51.513Z,50.81
2019-03-12T08:47:48.849Z,53.64
2019-03-12T08:50:43.550Z,56.19
2019-03-12T08:53:22.493Z,57.93
2019-03-12T08:56:22.497Z,59.70
2019-03-12T08:59:17.058Z,61.41
2019-03-12T09:02:24.814Z,62.54
2019-03-12T09:05:06.648Z,59.89
2019-03-12T09:07:49.232Z,48.70
2019-03-12T09:10:36.966Z,50.69
2019-03-12T09:13:48.258Z,53.68
2019-03-12T09:16:39.832Z,56.30
2019-03-12T09:19:23.572Z,57.81
2019-03-12T09:22:33.628Z,59.88
2019-03-12T09:25:25.420Z,61.27
2019-03-12T09:28:30.322Z,62.09
2019-03-12T09:31:24.767Z,60.92
2019-03-12T09:34:28.621Z,48.67
2019-03-12T09:37:38.408Z,51.19
2019-03-12T09:40:29.707Z,53.81
2019-03-12T09:43:20.158Z,56.32
2019-03-12T09:46:10.590Z,57.82
2019-03-12T09:49:00.944Z,59.00
2019-03-12T09:51:55.563Z,59.83
2019-03-12T09:54:50.205Z,61.33
2019-03-12T09:57:47.678Z,62.89
2019-03-12T10:00:39.245Z,55.78
2019-03-12T10:03:29.142Z,48.76
2019-03-12T10:06:12.706Z,51.53
2019-03-12T10:08:57.561Z,53.32
2019-03-12T10:11:52.043Z,55.07
2019-03-12T10:15:02.108Z,56.30
2019-03-12T10:18:02.884Z,56.98
2019-03-12T10:20:58.496Z,57.89
2019-03-12T10:23:59.091Z,59.20
2019-03-12T10:26:56.694Z,59.36
2019-03-12T10:29:45.051Z,60.91
2019-03-12T10:32:28.575Z,61.75
2019-03-12T10:35:09.103Z,63.56
2019-03-12T10:38:06.716Z,58.95
2019-03-12T10:41:08.509Z,48.44
2019-03-12T10:43:48.005Z,50.51
2019-03-12T10:46:54.993Z,52.77
2019-03-12T10:49:37.447Z,55.10
2019-03-12T10:52:03.183Z,56.07
2019-03-12T10:54:36.032Z,57.14
2019-03-12T10:57:08.863Z,57.24
2019-03-12T10:59:41.832Z,57.96
2019-03-12T11:02:14.603Z,58.55
2019-03-12T11:04:47.478Z,59.53
2019-03-12T11:07:20.252Z,59.76
2019-03-12T11:09:53.193Z,59.73
2019-03-12T11:12:26.472Z,60.51
2019-03-12T11:14:59.382Z,60.18
2019-03-12T11:17:32.235Z,59.76
2019-03-12T11:20:05.663Z,61.16
2019-03-12T11:22:38.659Z,61.64
2019-03-12T11:25:11.583Z,61.93
2019-03-12T11:27:44.519Z,62.53
2019-03-12T11:30:17.978Z,62.08
2019-03-12T11:32:50.731Z,47.72
2019-03-12T11:35:23.507Z,47.36
2019-03-12T11:37:59.174Z,50.46
2019-03-12T11:40:32.990Z,52.21
2019-03-12T11:43:06.314Z,53.14
2019-03-12T11:45:39.437Z,54.00
2019-03-12T11:48:13.565Z,54.31
2019-03-12T11:50:46.770Z,53.70
2019-03-12T11:53:19.743Z,53.71
2019-03-12T11:55:52.530Z,55.49
2019-03-12T11:58:25.406Z,55.74
2019-03-12T12:01:03.706Z,55.75
2019-03-12T12:03:37.010Z,54.84
2019-03-12T12:06:12.888Z,53.95
2019-03-12T12:08:45.659Z,55.28
2019-03-12T12:11:19.572Z,54.32
2019-03-12T12:13:52.359Z,53.73
2019-03-12T12:16:25.170Z,53.58
2019-03-12T12:18:58.069Z,54.41
2019-03-12T12:21:30.936Z,54.85
2019-03-12T12:24:03.779Z,56.58
2019-03-12T12:26:36.591Z,56.64
2019-03-12T12:29:09.319Z,57.79
2019-03-12T12:31:42.208Z,58.73
2019-03-12T12:34:17.348Z,58.60
2019-03-12T12:36:50.100Z,59.25
2019-03-12T12:39:23.944Z,59.10
2019-03-12T12:41:56.889Z,60.24
2019-03-12T12:44:30.734Z,60.40
2019-03-12T12:47:03.552Z,60.99
2019-03-12T12:49:36.365Z,60.88
2019-03-12T12:52:09.234Z,61.22
2019-03-12T12:54:42.117Z,60.49
2019-03-12T12:57:14.947Z,60.79
2019-03-12T12:59:47.782Z,60.94
2019-03-12T13:02:20.621Z,60.94
2019-03-12T13:04:53.317Z,61.05
2019-03-12T13:07:26.277Z,61.67
2019-03-12T13:09:59.089Z,61.72
2019-03-12T13:12:31.967Z,62.14
2019-03-12T13:15:05.148Z,61.67
2019-03-12T13:17:38.100Z,61.66
2019-03-12T13:20:12.155Z,61.52
2019-03-12T13:23:10.851Z,61.74
2019-03-12T13:25:43.633Z,60.54
2019-03-12T13:28:20.049Z,61.06
2019-03-12T13:30:52.846Z,61.41
2019-03-12T13:33:25.846Z,61.23
2019-03-12T13:35:58.706Z,61.96
2019-03-12T13:38:44.821Z,60.95
2019-03-12T13:41:06.217Z,61.08
2019-03-12T13:43:39.105Z,61.22
2019-03-12T13:46:12.006Z,61.43
2019-03-12T13:48:44.848Z,61.44
2019-03-12T13:51:17.719Z,61.38
2019-03-12T13:53:52.588Z,61.26
2019-03-12T13:56:25.392Z,61.75
2019-03-12T13:58:58.218Z,61.19
2019-03-12T14:01:31.191Z,61.96
2019-03-12T14:04:10.417Z,61.72
2019-03-12T14:06:38.656Z,62.32
2019-03-12T14:09:11.393Z,62.59
2019-03-12T14:11:46.026Z,62.28
2019-03-12T14:14:18.817Z,47.56
2019-03-12T14:16:51.945Z,46.14
2019-03-12T14:19:24.957Z,48.15
2019-03-12T14:21:58.060Z,49.99
2019-03-12T14:24:30.849Z,51.08
2019-03-12T14:27:03.367Z,51.83
2019-03-12T14:29:36.200Z,52.19
2019-03-12T14:32:11.908Z,53.51
2019-03-12T14:34:43.663Z,55.07
2019-03-12T14:37:16.556Z,55.66
2019-03-12T14:39:49.345Z,55.92
2019-03-12T14:42:22.233Z,56.44
2019-03-12T14:44:54.974Z,56.72
2019-03-12T14:47:27.790Z,57.06
2019-03-12T14:50:00.668Z,57.94
2019-03-12T14:52:39.657Z,58.24
2019-03-12T14:55:12.629Z,58.62
2019-03-12T14:57:45.552Z,59.08
2019-03-12T15:00:25.422Z,60.16
2019-03-12T15:02:57.897Z,60.78
2019-03-12T15:05:30.841Z,61.32
2019-03-12T15:08:04.951Z,61.56
2019-03-12T15:10:37.798Z,62.22
2019-03-12T15:13:10.855Z,62.43
2019-03-12T15:15:43.734Z,49.86
2019-03-12T15:18:16.922Z,46.25
2019-03-12T15:20:50.091Z,48.40
2019-03-12T15:23:23.072Z,50.86
2019-03-12T15:25:55.990Z,52.73
2019-03-12T15:28:28.965Z,53.57
2019-03-12T15:31:02.465Z,54.59
2019-03-12T15:33:35.991Z,55.32
2019-03-12T15:36:08.818Z,56.49
2019-03-12T15:38:41.581Z,57.59
2019-03-12T15:41:14.490Z,58.28
2019-03-12T15:43:47.299Z,59.17
2019-03-12T15:46:20.788Z,59.94
2019-03-12T15:48:54.725Z,59.82
2019-03-12T15:51:27.591Z,60.14
2019-03-12T15:54:00.322Z,60.57
2019-03-12T15:56:33.208Z,61.28
2019-03-12T15:59:05.996Z,61.70
2019-03-12T16:01:39.049Z,62.27
2019-03-12T16:04:11.996Z,65.47
2019-03-12T16:06:45.947Z,52.84
2019-03-12T16:09:19.192Z,44.05
2019-03-12T16:11:52.224Z,46.11
2019-03-12T16:14:25.031Z,48.19
2019-03-12T16:16:58.035Z,50.27
2019-03-12T16:19:30.773Z,51.67
2019-03-12T16:22:03.702Z,52.76
2019-03-12T16:24:36.467Z,53.65
2019-03-12T16:27:09.313Z,54.55
2019-03-12T16:29:42.286Z,55.74
2019-03-12T16:32:15.185Z,56.11
2019-03-12T16:34:48.082Z,57.35
2019-03-12T16:37:27.896Z,57.69
2019-03-12T16:40:00.783Z,59.30
2019-03-12T16:42:35.277Z,59.71
2019-03-12T16:45:09.554Z,60.37
2019-03-12T16:47:42.435Z,60.78
2019-03-12T16:50:16.287Z,61.70
2019-03-12T16:52:49.077Z,62.26
2019-03-12T16:55:22.009Z,67.27
2019-03-12T16:57:54.785Z,54.38
2019-03-12T17:00:27.942Z,46.11
2019-03-12T17:03:00.826Z,47.75
2019-03-12T17:05:33.853Z,50.18
2019-03-12T17:08:06.825Z,51.67
2019-03-12T17:10:39.672Z,53.27
2019-03-12T17:13:14.029Z,54.46
2019-03-12T17:15:47.030Z,55.70
2019-03-12T17:18:19.991Z,56.86
2019-03-12T17:20:52.831Z,57.60
2019-03-12T17:23:26.501Z,59.03
2019-03-12T17:25:59.875Z,59.59
2019-03-12T17:28:32.702Z,60.14
2019-03-12T17:31:05.660Z,60.41
2019-03-12T17:33:38.421Z,61.49
2019-03-12T17:36:11.372Z,61.90
2019-03-12T17:38:46.934Z,62.68
2019-03-12T17:41:18.779Z,66.73
2019-03-12T17:43:51.647Z,50.74
2019-03-12T17:46:24.885Z,47.65
2019-03-12T17:48:57.643Z,49.61
2019-03-12T17:51:30.643Z,51.83
2019-03-12T17:54:03.774Z,53.78
2019-03-12T17:56:36.764Z,55.09
2019-03-12T17:59:09.634Z,55.65
2019-03-12T18:01:42.680Z,56.96
2019-03-12T18:04:15.553Z,58.30
2019-03-12T18:06:48.327Z,59.03
2019-03-12T18:09:21.080Z,59.63
2019-03-12T18:11:54.034Z,60.37
2019-03-12T18:14:26.903Z,60.89
2019-03-12T18:16:59.795Z,61.47
2019-03-12T18:19:32.499Z,61.81
2019-03-12T18:22:05.323Z,66.20
2019-03-12T18:24:38.132Z,60.99
2019-03-12T18:27:10.968Z,48.93
2019-03-12T18:29:43.798Z,49.25
2019-03-12T18:32:16.624Z,51.67
2019-03-12T18:34:49.439Z,53.29
2019-03-12T18:37:22.279Z,55.00
2019-03-12T18:39:55.217Z,56.47
2019-03-12T18:42:28.196Z,57.22
2019-03-12T18:45:01.127Z,58.49
2019-03-12T18:47:34.159Z,59.22
2019-03-12T18:50:08.460Z,60.13
2019-03-12T18:52:42.525Z,60.29
2019-03-12T18:55:45.856Z,61.86
2019-03-12T18:58:18.610Z,62.16
2019-03-12T19:00:51.575Z,64.47
2019-03-12T19:03:24.513Z,53.10
2019-03-12T19:05:58.552Z,45.36
2019-03-12T19:08:31.429Z,47.41
2019-03-12T19:11:06.475Z,49.73
2019-03-12T19:13:41.497Z,51.63
2019-03-12T19:16:14.453Z,53.08
2019-03-12T19:18:47.467Z,54.28
2019-03-12T19:21:20.462Z,56.14
2019-03-12T19:23:53.261Z,56.06
2019-03-12T19:26:26.305Z,56.99
2019-03-12T19:28:59.039Z,57.46
2019-03-12T19:31:33.759Z,58.65
2019-03-12T19:34:11.044Z,58.81
2019-03-12T19:36:44.080Z,59.21
2019-03-12T19:39:18.402Z,60.51
2019-03-12T19:41:51.350Z,60.77
2019-03-12T19:44:25.260Z,61.41
2019-03-12T19:46:58.280Z,61.70
2019-03-12T19:49:31.083Z,62.09
2019-03-12T19:52:03.914Z,65.09
2019-03-12T19:54:36.912Z,50.49
2019-03-12T19:57:09.941Z,46.94
2019-03-12T19:59:42.762Z,48.61
2019-03-12T20:02:17.529Z,50.50
2019-03-12T20:04:50.467Z,52.23
2019-03-12T20:07:23.423Z,53.53
2019-03-12T20:10:51.442Z,54.12
2019-03-12T20:14:41.090Z,55.57
2019-03-12T20:18:16.208Z,56.67
2019-03-12T20:22:10.217Z,57.24
2019-03-12T20:25:30.205Z,58.62
2019-03-12T20:29:27.429Z,59.28
2019-03-12T20:33:00.081Z,60.12
2019-03-12T20:36:39.772Z,60.84
2019-03-12T20:40:36.867Z,61.05
2019-03-12T20:44:31.912Z,61.92
2019-03-12T20:48:09.753Z,64.93
2019-03-12T20:51:59.315Z,47.26
2019-03-12T20:55:41.222Z,49.38
2019-03-12T20:59:16.440Z,52.08
2019-03-12T21:03:03.208Z,53.54
2019-03-12T21:06:29.624Z,55.80
2019-03-12T21:10:01.094Z,56.76
2019-03-12T21:13:34.620Z,57.69
2019-03-12T21:16:43.614Z,58.23
2019-03-12T21:20:21.522Z,59.04
2019-03-12T21:23:48.318Z,60.17
2019-03-12T21:27:11.093Z,60.80
2019-03-12T21:29:45.522Z,61.62
2019-03-12T21:32:19.547Z,61.68
2019-03-12T21:34:52.454Z,63.83
2019-03-12T21:37:25.304Z,54.89
2019-03-12T21:39:58.166Z,44.98
2019-03-12T21:42:31.163Z,47.07
2019-03-12T21:45:04.597Z,49.49
2019-03-12T21:47:37.758Z,51.15
2019-03-12T21:50:10.804Z,52.09
2019-03-12T21:52:43.582Z,53.70
2019-03-12T21:55:16.345Z,54.54
2019-03-12T21:57:49.184Z,54.98
2019-03-12T22:00:22.253Z,56.20
2019-03-12T22:02:55.216Z,56.93
2019-03-12T22:05:28.040Z,57.63
2019-03-12T22:08:00.888Z,58.14
2019-03-12T22:10:33.749Z,58.76
2019-03-12T22:13:06.827Z,59.09
2019-03-12T22:15:39.759Z,59.84
2019-03-12T22:18:12.662Z,60.11
2019-03-12T22:20:45.511Z,60.45
2019-03-12T22:23:27.826Z,60.93
2019-03-12T22:26:00.690Z,60.90
2019-03-12T22:28:33.475Z,61.00
2019-03-12T22:31:06.447Z,60.60
2019-03-12T22:33:39.167Z,60.96
2019-03-12T22:36:11.993Z,61.15
2019-03-12T22:38:44.903Z,60.23
2019-03-12T22:41:17.642Z,60.57
2019-03-12T22:43:50.486Z,61.00
2019-03-12T22:46:23.484Z,60.38
2019-03-12T22:48:56.388Z,60.79
2019-03-12T22:51:29.264Z,61.27
2019-03-12T22:54:02.622Z,60.12
2019-03-12T22:56:35.720Z,60.48
2019-03-12T22:59:10.031Z,60.70
2019-03-12T23:02:00.502Z,60.65
2019-03-12T23:04:50.951Z,60.69
2019-03-12T23:07:41.644Z,61.05
2019-03-12T23:10:17.401Z,60.14
2019-03-12T23:12:51.888Z,60.20
2019-03-12T23:15:25.219Z,60.14
2019-03-12T23:17:58.900Z,59.80
2019-03-12T23:20:32.689Z,60.47
2019-03-12T23:23:07.138Z,61.05
2019-03-12T23:25:40.120Z,59.80
2019-03-12T23:28:13.400Z,60.16
2019-03-12T23:30:46.549Z,60.96
2019-03-12T23:33:19.379Z,60.63
2019-03-12T23:35:52.215Z,61.17
2019-03-12T23:38:25.069Z,60.42
2019-03-12T23:40:59.096Z,60.68
2019-03-12T23:43:31.923Z,60.79
2019-03-12T23:46:04.836Z,60.26
2019-03-12T23:48:37.861Z,60.67
2019-03-12T23:51:10.829Z,60.41
2019-03-12T23:53:43.726Z,60.44
2019-03-12T23:56:16.705Z,61.48
2019-03-12T23:58:49.601Z,60.28
